Randgrid — C6YM8 — position and weather

sailwx.info

Track history (hours):
 
Tides and Currents Weather Stations Pressure Air Temp Water Temp Dewpoint Dewpoint Depression Visibility Wind Speed Wind Dir Waves Ship Positions

Randgrid

Last reported at 2017-Sep-15 03:32 UTC. Time now 2017-Sep-22 10:13 UTC.
Position N 59°01' E 004°55'.

Length 265 m.

Type: Tanker. MMSI: 311038200.

Date/timePositionNaut miles runAvg speedWind from/ knotsBaromVisibWave heightAir tempDewpointWater temp
2017-Sep-15 03:32N 59°01' E 004°55'0 7.0
2017-Sep-15 03:30N 59°01' E 004°55'4 7.0
2017-Sep-15 03:00N 59°02' E 005°02'3 6.8
2017-Sep-15 02:30N 59°03' E 005°08'3 6.9
2017-Sep-15 02:00N 59°04' E 005°14'3 6.9
2017-Sep-15 01:30N 59°06' E 005°20'3 7.0
2017-Sep-15 01:00N 59°06' E 005°27'3 5.7
2017-Sep-15 00:30N 59°05' E 005°32'3 5.2
2017-Sep-15 00:00N 59°03' E 005°35'2 3.0
2017-Sep-14 23:30N 59°02' E 005°37'0 0.5
2017-Sep-14 23:00N 59°02' E 005°37'0 0.6
2017-Sep-14 22:30N 59°02' E 005°37'0 0.4
2017-Sep-14 22:00N 59°01' E 005°37'0 0.0
2017-Sep-14 21:30N 59°01' E 005°37'0 0.0
2017-Sep-14 21:00N 59°01' E 005°37'0 0.0
2017-Sep-14 20:30N 59°01' E 005°37'0 0.0
2017-Sep-14 20:00N 59°01' E 005°37'0 0.0
2017-Sep-14 19:30N 59°01' E 005°37'0 0.0
2017-Sep-14 19:00N 59°01' E 005°37'0 0.0
2017-Sep-14 18:30N 59°01' E 005°37'0 0.0
2017-Sep-14 18:00N 59°01' E 005°37'0 0.0
2017-Sep-14 17:30N 59°01' E 005°37'0 0.0
2017-Sep-14 17:00N 59°01' E 005°37'0 0.0
2017-Sep-14 16:30N 59°01' E 005°37'0 0.0
2017-Sep-14 16:00N 59°01' E 005°37'0 0.0
2017-Sep-14 15:30N 59°01' E 005°37'0 0.0
2017-Sep-14 15:00N 59°01' E 005°37'0 0.0
2017-Sep-14 14:30N 59°01' E 005°37'0 0.0
2017-Sep-14 14:00N 59°01' E 005°37'0 0.0
2017-Sep-14 13:30N 59°01' E 005°37'0 0.0
2017-Sep-14 13:00N 59°01' E 005°37'0 0.0
2017-Sep-14 12:30N 59°01' E 005°37'0 0.0
2017-Sep-14 12:00N 59°01' E 005°37'0 0.0
2017-Sep-14 11:30N 59°01' E 005°37'0 0.0
2017-Sep-14 11:00N 59°01' E 005°37'0 0.0
2017-Sep-14 10:30N 59°01' E 005°37'0 0.0
2017-Sep-14 10:00N 59°01' E 005°37'0 0.0
2017-Sep-14 09:30N 59°01' E 005°37'0 0.0
2017-Sep-14 09:00N 59°01' E 005°37'0 0.0
2017-Sep-14 08:30N 59°01' E 005°37'0 0.0
2017-Sep-14 08:00N 59°01' E 005°37'0 0.0
2017-Sep-14 07:30N 59°01' E 005°37'0 0.0
2017-Sep-14 07:00N 59°01' E 005°37'0 0.0
2017-Sep-14 06:30N 59°01' E 005°37'0 0.0
2017-Sep-14 06:00N 59°01' E 005°37'0 0.0
2017-Sep-14 05:30N 59°01' E 005°37'0 0.0
2017-Sep-14 05:00N 59°01' E 005°37'0 0.0
2017-Sep-14 04:30N 59°01' E 005°37'0 0.0
2017-Sep-14 04:00N 59°01' E 005°37'0 0.0
2017-Sep-14 03:30N 59°01' E 005°37'0 0.0
2017-Sep-14 03:00N 59°01' E 005°37'0 0.0
2017-Sep-14 02:30N 59°01' E 005°37'0 0.0
2017-Sep-14 02:00N 59°01' E 005°37'0 0.0
2017-Sep-14 01:30N 59°01' E 005°37'0 0.0
2017-Sep-14 01:00N 59°01' E 005°37'0 0.0
2017-Sep-14 00:30N 59°01' E 005°37'0 0.0
2017-Sep-14 00:00N 59°01' E 005°37'0 0.0
2017-Sep-13 23:30N 59°01' E 005°37'0 0.0
2017-Sep-13 23:00N 59°01' E 005°37'0 0.0
2017-Sep-13 22:30N 59°01' E 005°37'0 0.0
2017-Sep-13 22:00N 59°01' E 005°37'0 0.0
2017-Sep-13 21:30N 59°01' E 005°37'0 0.0
2017-Sep-13 21:00N 59°01' E 005°37'0 0.0
2017-Sep-13 20:30N 59°01' E 005°37'0 0.0
2017-Sep-13 20:00N 59°01' E 005°37'0 0.0
2017-Sep-13 19:30N 59°01' E 005°37'0 0.0
2017-Sep-13 19:00N 59°01' E 005°37'0 0.0
2017-Sep-13 18:30N 59°01' E 005°37'0 0.0
2017-Sep-13 18:00N 59°01' E 005°37'0 0.0
2017-Sep-13 17:30N 59°01' E 005°37'0 0.0
2017-Sep-13 17:00N 59°01' E 005°37'0 0.0
2017-Sep-13 16:30N 59°01' E 005°37'0 0.0
2017-Sep-13 16:00N 59°01' E 005°37'0 0.0
2017-Sep-13 15:30N 59°01' E 005°37'0 0.0
2017-Sep-13 15:00N 59°01' E 005°37'0 0.0
2017-Sep-13 14:30N 59°01' E 005°37'0 0.0
2017-Sep-13 14:00N 59°01' E 005°37'0 0.0
2017-Sep-13 13:30N 59°01' E 005°37'0 0.0
2017-Sep-13 13:00N 59°01' E 005°37'0 0.0
2017-Sep-13 12:30N 59°01' E 005°37'0 0.0
2017-Sep-13 12:00N 59°01' E 005°37'0 0.0
2017-Sep-13 11:30N 59°01' E 005°37'0 0.0
2017-Sep-13 11:00N 59°01' E 005°37'0 0.0
2017-Sep-13 10:30N 59°01' E 005°37'0 0.0
2017-Sep-13 10:00N 59°01' E 005°37'0 0.0
2017-Sep-13 09:10N 59°01' E 005°37'0 0.0
2017-Sep-13 08:58N 59°01' E 005°37'0 0.0
2017-Sep-13 08:28N 59°01' E 005°37'0 0.0
2017-Sep-13 07:58N 59°01' E 005°37'0 0.0
2017-Sep-13 07:28N 59°01' E 005°37'0 0.0
2017-Sep-13 06:58N 59°01' E 005°37'0 0.0
2017-Sep-13 06:28N 59°01' E 005°37'0 0.0
2017-Sep-13 05:58N 59°01' E 005°37'0 0.0
2017-Sep-13 05:28N 59°01' E 005°37'0 0.0
2017-Sep-13 04:58N 59°01' E 005°37'0 0.0
2017-Sep-13 04:28N 59°01' E 005°37'0 0.0
2017-Sep-13 03:58N 59°01' E 005°37'0 0.0
2017-Sep-13 03:28N 59°01' E 005°37'0 0.0
2017-Sep-13 02:58N 59°01' E 005°37'0 0.0
2017-Sep-13 02:28N 59°01' E 005°37'0 0.0
2017-Sep-13 01:58N 59°01' E 005°37'0 0.0
2017-Sep-13 01:28N 59°01' E 005°37'0 0.0
2017-Sep-13 00:58N 59°01' E 005°37'0 0.0
2017-Sep-13 00:28N 59°01' E 005°37'0 0.0
2017-Sep-12 23:58N 59°01' E 005°37'0 0.0
2017-Sep-12 23:28N 59°01' E 005°37'0 0.0
2017-Sep-12 22:58N 59°01' E 005°37'0 0.0
2017-Sep-12 22:25N 59°01' E 005°37'0 0.0
2017-Sep-12 21:58N 59°01' E 005°37'0 0.0
2017-Sep-12 21:28N 59°01' E 005°37'0 0.0
2017-Sep-12 20:58N 59°01' E 005°37'0 0.0
2017-Sep-12 20:28N 59°01' E 005°37'0 0.0
2017-Sep-12 19:58N 59°01' E 005°37'0 0.0
2017-Sep-12 19:28N 59°01' E 005°37'0 0.0
2017-Sep-12 18:58N 59°01' E 005°37'0 0.0
2017-Sep-12 18:28N 59°01' E 005°37'0 0.0
2017-Sep-12 17:58N 59°01' E 005°37'0 0.0
2017-Sep-12 17:31N 59°01' E 005°37'0 0.0
2017-Sep-12 17:01N 59°01' E 005°37'0 0.0
2017-Sep-12 16:27N 59°01' E 005°37'0 0.0
2017-Sep-12 16:00N 59°01' E 005°37'0 0.0
2017-Sep-12 15:30N 59°01' E 005°37'0 0.0
2017-Sep-12 15:00N 59°01' E 005°37'0 0.0
2017-Sep-12 14:30N 59°01' E 005°37'0 0.0
2017-Sep-12 14:00N 59°01' E 005°37'0 0.0
2017-Sep-12 13:27N 59°01' E 005°37'0 0.0
2017-Sep-12 12:57N 59°01' E 005°37'0 0.0
2017-Sep-12 12:30N 59°01' E 005°37'0 0.0
2017-Sep-12 12:00N 59°01' E 005°37'0 0.0
2017-Sep-12 11:30N 59°01' E 005°37'0 0.0
2017-Sep-12 11:00N 59°01' E 005°37'0 0.0
2017-Sep-12 10:27N 59°01' E 005°37'0 0.0
2017-Sep-12 10:00N 59°01' E 005°37'0 0.0
2017-Sep-12 09:30N 59°01' E 005°37'0 0.0
2017-Sep-12 09:00N 59°01' E 005°37'0 0.0
2017-Sep-12 08:30N 59°01' E 005°37'0 0.0
2017-Sep-12 08:00N 59°01' E 005°37'0 0.0
2017-Sep-12 07:30N 59°01' E 005°37'0 0.0
2017-Sep-12 07:00N 59°01' E 005°37'0 0.0
2017-Sep-12 06:30N 59°01' E 005°37'0 0.0
2017-Sep-12 06:00N 59°01' E 005°37'0 0.0
2017-Sep-12 05:30N 59°01' E 005°37'0 0.0
2017-Sep-12 05:00N 59°01' E 005°37'0 0.0
2017-Sep-12 04:27N 59°01' E 005°37'0 0.0
2017-Sep-12 04:00N 59°01' E 005°37'0 0.0
2017-Sep-12 03:30N 59°01' E 005°37'0 0.0
2017-Sep-12 03:00N 59°01' E 005°37'0 0.0
2017-Sep-12 02:30N 59°01' E 005°37'0 0.0
2017-Sep-12 02:00N 59°01' E 005°37'0 0.0
2017-Sep-12 01:30N 59°01' E 005°37'0 0.0
2017-Sep-12 01:00N 59°01' E 005°37'0 0.0
2017-Sep-12 00:30N 59°01' E 005°37'0 0.0
2017-Sep-12 00:00N 59°01' E 005°37'0 0.0
2017-Sep-11 23:30N 59°01' E 005°37'0 0.0
2017-Sep-11 23:00N 59°01' E 005°37'0 0.0
2017-Sep-11 22:30N 59°01' E 005°37'0 0.0
2017-Sep-11 22:00N 59°01' E 005°37'0 0.0
2017-Sep-11 21:30N 59°01' E 005°37'0 0.0
2017-Sep-11 21:00N 59°01' E 005°37'0 0.0
2017-Sep-11 20:30N 59°01' E 005°37'0 0.0
2017-Sep-11 20:00N 59°01' E 005°37'0 0.0
2017-Sep-11 19:30N 59°01' E 005°37'0 0.0
2017-Sep-11 19:00N 59°01' E 005°37'0 0.0
2017-Sep-11 18:30N 59°01' E 005°37'0 0.0
2017-Sep-11 18:00N 59°01' E 005°37'0 0.0
2017-Sep-11 17:30N 59°01' E 005°37'0 0.0
2017-Sep-11 17:00N 59°01' E 005°37'0 0.0
2017-Sep-11 16:30N 59°01' E 005°37'0 0.0
2017-Sep-11 16:00N 59°01' E 005°37'0 0.0
2017-Sep-11 15:30N 59°01' E 005°37'0 0.0
2017-Sep-11 15:00N 59°01' E 005°37'0 0.0
2017-Sep-11 14:30N 59°01' E 005°37'0 0.0
2017-Sep-11 14:00N 59°01' E 005°37'0 0.0
2017-Sep-11 13:30N 59°01' E 005°37'0 0.0
2017-Sep-11 13:00N 59°01' E 005°37'0 0.0
2017-Sep-11 12:30N 59°01' E 005°37'0 0.0
2017-Sep-11 12:00N 59°01' E 005°37'0 0.0
2017-Sep-11 11:30N 59°01' E 005°37'0 0.0
2017-Sep-11 11:00N 59°01' E 005°37'0 0.0
2017-Sep-11 10:30N 59°01' E 005°37'0 0.0
2017-Sep-11 10:00N 59°01' E 005°37'0 0.0
2017-Sep-11 09:30N 59°01' E 005°37'0 0.0
2017-Sep-11 09:00N 59°01' E 005°37'0 0.0
2017-Sep-11 08:30N 59°01' E 005°37'0 0.0
2017-Sep-11 08:00N 59°01' E 005°37'0 0.0
2017-Sep-11 07:30N 59°01' E 005°37'0 0.0
2017-Sep-11 07:00N 59°01' E 005°37'0 0.0
2017-Sep-11 06:30N 59°01' E 005°37'0 0.0
2017-Sep-11 06:00N 59°01' E 005°37'0 0.0
2017-Sep-11 05:30N 59°01' E 005°37'0 0.0
2017-Sep-11 05:00N 59°01' E 005°37'0 0.0
2017-Sep-11 04:30N 59°01' E 005°37'0 0.0
2017-Sep-11 04:00N 59°01' E 005°37'0 0.0
2017-Sep-11 03:30N 59°01' E 005°37'0 0.0
2017-Sep-11 02:59N 59°01' E 005°37'0 0.0
2017-Sep-11 02:29N 59°01' E 005°37'0 0.0
2017-Sep-11 01:59N 59°01' E 005°37'0 0.0
2017-Sep-11 01:29N 59°01' E 005°37'0 0.0
2017-Sep-11 00:59N 59°01' E 005°37'0 0.0
2017-Sep-11 00:29N 59°01' E 005°37'0 0.0
2017-Sep-10 23:59N 59°01' E 005°37'0 0.0
2017-Sep-10 23:29N 59°01' E 005°37'0 0.0
2017-Sep-10 22:59N 59°01' E 005°37'0 0.0
2017-Sep-10 22:29N 59°01' E 005°37'0 0.0
2017-Sep-10 21:59N 59°01' E 005°37'0 0.0
2017-Sep-10 21:29N 59°01' E 005°37'0 0.0
2017-Sep-10 20:59N 59°01' E 005°37'0 0.0
2017-Sep-10 20:29N 59°01' E 005°37'0 0.0
2017-Sep-10 19:59N 59°01' E 005°37'0 0.0
2017-Sep-10 19:29N 59°01' E 005°37'0 0.0
2017-Sep-10 18:59N 59°01' E 005°37'0 0.0
2017-Sep-10 18:29N 59°01' E 005°37'0 0.0
2017-Sep-10 17:59N 59°01' E 005°37'0 0.0
2017-Sep-10 17:29N 59°01' E 005°37'0 0.0
2017-Sep-10 16:59N 59°01' E 005°37'0 0.0
2017-Sep-10 16:29N 59°01' E 005°37'0 0.0
2017-Sep-10 15:59N 59°01' E 005°37'0 0.0
2017-Sep-10 15:29N 59°01' E 005°37'0 0.0
2017-Sep-10 14:59N 59°01' E 005°37'0 0.0
2017-Sep-10 13:59N 59°01' E 005°37'0 0.0
2017-Sep-10 13:29N 59°01' E 005°37'0 0.0
2017-Sep-10 12:59N 59°01' E 005°37'0 0.0
2017-Sep-10 12:29N 59°01' E 005°37'0 0.0
2017-Sep-10 11:58N 59°01' E 005°37'0 0.0
2017-Sep-10 11:28N 59°01' E 005°37'0 0.0
2017-Sep-10 10:58N 59°01' E 005°37'0 0.0
2017-Sep-10 10:28N 59°01' E 005°37'0 0.0
2017-Sep-10 09:58N 59°01' E 005°37'0 0.0
2017-Sep-10 09:28N 59°01' E 005°37'0 0.0
2017-Sep-10 08:58N 59°01' E 005°37'0 0.0
2017-Sep-10 08:28N 59°01' E 005°37'0 0.0
2017-Sep-10 07:58N 59°01' E 005°37'0 0.0
2017-Sep-10 07:28N 59°01' E 005°37'0 0.0
2017-Sep-10 06:58N 59°01' E 005°37'0 0.0
2017-Sep-10 06:28N 59°01' E 005°37'0 0.0
2017-Sep-10 05:58N 59°01' E 005°37'0 0.0
2017-Sep-10 05:28N 59°01' E 005°37'0 0.0
2017-Sep-10 04:58N 59°01' E 005°37'0 0.0
2017-Sep-10 04:28N 59°01' E 005°37'0 0.0
2017-Sep-10 03:58N 59°01' E 005°37'0 0.0
2017-Sep-10 03:28N 59°01' E 005°37'0 0.0
2017-Sep-10 02:58N 59°01' E 005°37'0 0.0
2017-Sep-10 02:28N 59°01' E 005°37'0 0.0
2017-Sep-10 01:58N 59°01' E 005°37'0 0.0
2017-Sep-10 01:28N 59°01' E 005°37'0 0.0
2017-Sep-10 00:58N 59°01' E 005°37'0 0.0
2017-Sep-10 00:28N 59°01' E 005°37'0 0.0
2017-Sep-09 23:58N 59°01' E 005°37'0 0.0
2017-Sep-09 23:28N 59°01' E 005°37'0 0.0
2017-Sep-09 22:58N 59°01' E 005°37'0 0.0
2017-Sep-09 22:28N 59°01' E 005°37'0 0.0
2017-Sep-09 21:58N 59°01' E 005°37'0 0.0
2017-Sep-09 21:28N 59°01' E 005°37'0 0.0
2017-Sep-09 20:58N 59°01' E 005°37'0 0.0
2017-Sep-09 20:28N 59°01' E 005°37'0 0.0
2017-Sep-09 19:58N 59°01' E 005°37'0 0.0
2017-Sep-09 19:28N 59°01' E 005°37'0 0.0
2017-Sep-09 18:55N 59°01' E 005°37'0 0.0
2017-Sep-09 18:28N 59°01' E 005°37'0 0.0
2017-Sep-09 17:58N 59°01' E 005°37'0 0.0
2017-Sep-09 17:28N 59°01' E 005°37'0 0.0
2017-Sep-09 16:58N 59°01' E 005°37'0 0.0
2017-Sep-09 16:28N 59°01' E 005°37'0 0.0
2017-Sep-09 15:58N 59°01' E 005°37'0 0.0
2017-Sep-09 15:28N 59°01' E 005°37'0 0.0
2017-Sep-09 14:58N 59°01' E 005°37'0 0.0
2017-Sep-09 14:28N 59°01' E 005°37'0 0.0
2017-Sep-09 13:58N 59°01' E 005°37'0 0.0
2017-Sep-09 13:28N 59°01' E 005°37'0 0.0
2017-Sep-09 12:58N 59°01' E 005°37'0 0.0
2017-Sep-09 12:28N 59°01' E 005°37'0 0.0
2017-Sep-09 11:58N 59°01' E 005°37'0 0.0
2017-Sep-09 11:28N 59°01' E 005°37'0 0.0
2017-Sep-09 10:58N 59°01' E 005°37'0 0.0
2017-Sep-09 10:28N 59°01' E 005°37'0 0.0
2017-Sep-09 09:58N 59°01' E 005°37'0 0.0
2017-Sep-09 09:28N 59°01' E 005°37'0 0.0
2017-Sep-09 08:58N 59°01' E 005°37'0 0.0
2017-Sep-09 08:28N 59°01' E 005°37'0 0.0
2017-Sep-09 07:58N 59°01' E 005°37'0 0.0
2017-Sep-09 07:28N 59°01' E 005°37'0 0.0
2017-Sep-09 06:58N 59°01' E 005°37'0 0.0
2017-Sep-09 06:31N 59°01' E 005°37'0 0.0
2017-Sep-09 06:01N 59°01' E 005°37'0 0.0
2017-Sep-09 05:31N 59°01' E 005°37'0 0.0
2017-Sep-09 05:00N 59°01' E 005°37'0 0.0
2017-Sep-09 04:30N 59°01' E 005°37'0 0.0
2017-Sep-09 04:00N 59°01' E 005°37'0 0.0
2017-Sep-09 03:30N 59°01' E 005°37'0 0.0
2017-Sep-09 03:00N 59°01' E 005°37'0 0.0
2017-Sep-09 02:30N 59°01' E 005°37'0 0.0
2017-Sep-09 02:00N 59°01' E 005°37'0 0.0
2017-Sep-09 01:30N 59°01' E 005°37'0 0.0
2017-Sep-09 01:00N 59°01' E 005°37'0 0.0
2017-Sep-09 00:30N 59°01' E 005°37'0 0.0
2017-Sep-09 00:00N 59°01' E 005°37'0 0.0
2017-Sep-08 23:30N 59°01' E 005°37'0 0.0
2017-Sep-08 23:00N 59°01' E 005°37'0 0.0
2017-Sep-08 22:30N 59°01' E 005°37'0 0.0
2017-Sep-08 22:00N 59°01' E 005°37'0 0.0
2017-Sep-08 21:30N 59°01' E 005°37'0 0.0
2017-Sep-08 21:00N 59°01' E 005°37'0 0.0
2017-Sep-08 20:30N 59°01' E 005°37'0 0.0
2017-Sep-08 20:00N 59°01' E 005°37'0 0.0
2017-Sep-08 19:30N 59°01' E 005°37'0 0.0
2017-Sep-08 19:00N 59°01' E 005°37'0 0.0
2017-Sep-08 18:30N 59°01' E 005°37'0 0.0
2017-Sep-08 17:57N 59°01' E 005°37'0 0.0
2017-Sep-08 17:30N 59°01' E 005°37'0 0.0
2017-Sep-08 17:00N 59°01' E 005°37'0 0.0
2017-Sep-08 16:30N 59°01' E 005°37'0 0.0
2017-Sep-08 16:00N 59°01' E 005°37'0 0.0
2017-Sep-08 15:30N 59°01' E 005°37'0 0.0
2017-Sep-08 15:00N 59°01' E 005°37'0 0.0
2017-Sep-08 14:30N 59°01' E 005°37'0 0.0
2017-Sep-08 14:00N 59°01' E 005°37'0 0.0
2017-Sep-08 13:30N 59°01' E 005°37'0 0.0
2017-Sep-08 13:00N 59°01' E 005°37'0 0.0
2017-Sep-08 12:30N 59°01' E 005°37'0 0.0
2017-Sep-08 12:00N 59°01' E 005°37'0 0.0
2017-Sep-08 11:30N 59°01' E 005°37'0 0.0
2017-Sep-08 11:00N 59°01' E 005°37'0 0.0
2017-Sep-08 10:30N 59°01' E 005°37'0 0.0
2017-Sep-08 09:57N 59°01' E 005°37'0 0.0
2017-Sep-08 09:27N 59°01' E 005°37'0 0.0
2017-Sep-08 09:00N 59°01' E 005°37'0 0.0
2017-Sep-08 08:30N 59°01' E 005°37'0 0.0
2017-Sep-08 08:00N 59°01' E 005°37'0 0.0
2017-Sep-08 07:30N 59°01' E 005°37'0 0.0
2017-Sep-08 07:00N 59°01' E 005°37'0 0.0
2017-Sep-08 06:30N 59°01' E 005°37'0 0.0
2017-Sep-08 06:00N 59°01' E 005°37'0 0.0
2017-Sep-08 05:30N 59°01' E 005°37'0 0.0
2017-Sep-08 05:00N 59°01' E 005°37'0 0.0
2017-Sep-08 04:30N 59°01' E 005°37'0 0.0
2017-Sep-08 04:00N 59°01' E 005°37'0 0.0
2017-Sep-08 03:30N 59°01' E 005°37'0 0.0
2017-Sep-08 03:00N 59°01' E 005°37'0 0.0
2017-Sep-08 02:30N 59°01' E 005°37'0 0.0
2017-Sep-08 02:00N 59°01' E 005°37'0 0.0
2017-Sep-08 01:30N 59°01' E 005°37'0 0.0
2017-Sep-08 01:00N 59°01' E 005°37'0 0.0
2017-Sep-08 00:30N 59°01' E 005°37'0 0.0
2017-Sep-08 00:00N 59°01' E 005°37'0 0.0
2017-Sep-07 23:30N 59°01' E 005°37'0 0.0
2017-Sep-07 23:00N 59°01' E 005°37'0 0.0
2017-Sep-07 22:30N 59°01' E 005°37'0 0.0
2017-Sep-07 22:00N 59°01' E 005°37'0 0.0
2017-Sep-07 21:30N 59°01' E 005°37'0 0.0
2017-Sep-07 21:00N 59°01' E 005°37'0 0.0
2017-Sep-07 20:30N 59°01' E 005°37'0 0.0
2017-Sep-07 20:00N 59°01' E 005°37'0 0.0
2017-Sep-07 19:27N 59°01' E 005°37'0 0.0
2017-Sep-07 19:00N 59°01' E 005°37'0 0.0
2017-Sep-07 18:30N 59°01' E 005°37'0 0.0
2017-Sep-07 18:00N 59°01' E 005°37'0 0.0
2017-Sep-07 17:30N 59°01' E 005°37'0 0.0
2017-Sep-07 17:00N 59°01' E 005°37'0 0.0
2017-Sep-07 16:30N 59°01' E 005°37'0 0.0
2017-Sep-07 16:00N 59°01' E 005°37'0 0.0
2017-Sep-07 15:30N 59°01' E 005°37'0 0.0
2017-Sep-07 14:59N 59°01' E 005°37'0 0.0
2017-Sep-07 14:29N 59°01' E 005°37'0 0.0
2017-Sep-07 13:59N 59°01' E 005°37'0 0.0
2017-Sep-07 13:29N 59°01' E 005°37'0 0.0
2017-Sep-07 12:59N 59°01' E 005°37'0 0.0
2017-Sep-07 12:29N 59°01' E 005°37'0 0.0
2017-Sep-07 11:59N 59°01' E 005°37'0 0.0
2017-Sep-07 11:29N 59°01' E 005°37'0 0.0
2017-Sep-07 10:59N 59°01' E 005°37'0 0.0
2017-Sep-07 10:29N 59°01' E 005°37'0 0.0
2017-Sep-07 09:59N 59°01' E 005°37'0 0.0
2017-Sep-07 09:27N 59°01' E 005°37'0 0.0
2017-Sep-07 09:00N 59°01' E 005°37'0 0.0
2017-Sep-07 08:30N 59°01' E 005°37'0 0.0
2017-Sep-07 08:00N 59°01' E 005°37'0 0.0
2017-Sep-07 07:30N 59°01' E 005°37'0 0.0
2017-Sep-07 07:00N 59°01' E 005°37'0 0.0
2017-Sep-07 06:30N 59°01' E 005°37'0 0.0
2017-Sep-07 06:00N 59°01' E 005°37'0 0.0
2017-Sep-07 05:30N 59°01' E 005°37'0 0.0
2017-Sep-07 05:00N 59°01' E 005°37'0 0.0
2017-Sep-07 04:30N 59°01' E 005°37'0 0.0
2017-Sep-07 04:00N 59°01' E 005°37'0 0.0
2017-Sep-07 03:30N 59°01' E 005°37'0 0.0
2017-Sep-07 03:00N 59°01' E 005°37'0 0.0
2017-Sep-07 02:30N 59°01' E 005°37'0 0.0
2017-Sep-07 02:00N 59°01' E 005°37'0 0.0
2017-Sep-07 01:30N 59°01' E 005°37'0 0.0
2017-Sep-07 01:00N 59°01' E 005°37'0 0.0
2017-Sep-07 00:30N 59°01' E 005°37'0 0.0
2017-Sep-07 00:00N 59°01' E 005°37'0 0.0
2017-Sep-06 23:30N 59°01' E 005°37'0 0.0
2017-Sep-06 23:00N 59°01' E 005°37'0 0.0
2017-Sep-06 22:30N 59°01' E 005°37'0 0.0
2017-Sep-06 22:00N 59°01' E 005°37'0 0.0
2017-Sep-06 21:30N 59°01' E 005°37'0 0.0
2017-Sep-06 21:00N 59°01' E 005°37'0 0.0
2017-Sep-06 20:30N 59°01' E 005°37'0 0.0
2017-Sep-06 20:00N 59°01' E 005°37'0 0.0
2017-Sep-06 19:30N 59°01' E 005°37'0 0.0
2017-Sep-06 19:00N 59°01' E 005°37'0 0.0
2017-Sep-06 18:30N 59°01' E 005°37'0 0.0
2017-Sep-06 18:00N 59°01' E 005°37'0 0.0
2017-Sep-06 17:30N 59°01' E 005°37'0 0.0
2017-Sep-06 17:00N 59°01' E 005°37'0 0.0
2017-Sep-06 16:30N 59°01' E 005°37'0 0.0
2017-Sep-06 16:00N 59°01' E 005°37'0 0.0
2017-Sep-06 15:30N 59°01' E 005°37'0 0.0
2017-Sep-06 14:59N 59°01' E 005°37'0 0.0
2017-Sep-06 14:29N 59°01' E 005°37'0 0.0
2017-Sep-06 13:59N 59°01' E 005°37'0 0.0
2017-Sep-06 13:29N 59°01' E 005°37'0 0.0
2017-Sep-06 12:59N 59°01' E 005°37'0 0.0
2017-Sep-06 12:26N 59°01' E 005°37'0 0.0
2017-Sep-06 11:59N 59°01' E 005°37'0 0.0
2017-Sep-06 11:29N 59°01' E 005°37'0 0.0
2017-Sep-06 10:59N 59°01' E 005°37'0 0.0
2017-Sep-06 10:29N 59°01' E 005°37'0 0.0
2017-Sep-06 09:59N 59°01' E 005°37'0 0.0
2017-Sep-06 09:29N 59°01' E 005°37'0 0.0
2017-Sep-06 08:59N 59°01' E 005°37'0 0.0
2017-Sep-06 08:29N 59°01' E 005°37'0 0.0
2017-Sep-06 07:59N 59°01' E 005°37'0 0.0
2017-Sep-06 07:29N 59°01' E 005°37'0 0.0
2017-Sep-06 06:59N 59°01' E 005°37'0 0.0
2017-Sep-06 06:29N 59°01' E 005°37'0 0.0
2017-Sep-06 05:59N 59°01' E 005°37'0 0.0
2017-Sep-06 05:29N 59°01' E 005°37'0 0.0
2017-Sep-06 04:59N 59°01' E 005°37'0 0.0
2017-Sep-06 04:29N 59°01' E 005°37'0 0.0
2017-Sep-06 03:59N 59°01' E 005°37'0 0.0
2017-Sep-06 03:29N 59°01' E 005°37'0 0.0
2017-Sep-06 02:59N 59°01' E 005°37'0 0.0
2017-Sep-06 02:29N 59°01' E 005°37'0 0.0
2017-Sep-06 01:59N 59°01' E 005°37'0 0.0
2017-Sep-06 01:26N 59°01' E 005°37'0 0.0
2017-Sep-06 00:59N 59°01' E 005°37'0 0.0
2017-Sep-06 00:29N 59°01' E 005°37'0 0.0
2017-Sep-05 23:59N 59°01' E 005°37'0 0.0
2017-Sep-05 23:29N 59°01' E 005°37'0 0.0
2017-Sep-05 22:59N 59°01' E 005°37'0 0.0
2017-Sep-05 22:29N 59°01' E 005°37'0 0.0
2017-Sep-05 21:59N 59°01' E 005°37'0 0.0
2017-Sep-05 21:29N 59°01' E 005°37'0 0.0
2017-Sep-05 20:59N 59°01' E 005°37'0 0.0
2017-Sep-05 20:29N 59°01' E 005°37'0 0.0
2017-Sep-05 19:59N 59°01' E 005°37'0 0.0
2017-Sep-05 19:29N 59°01' E 005°37'0 0.0
2017-Sep-05 18:59N 59°01' E 005°37'0 0.0
2017-Sep-05 18:29N 59°01' E 005°37'0 0.0
2017-Sep-05 17:59N 59°01' E 005°37'0 0.0
2017-Sep-05 17:29N 59°01' E 005°37'0 0.0
2017-Sep-05 16:59N 59°01' E 005°37'0 0.0
2017-Sep-05 16:29N 59°01' E 005°37'0 0.0
2017-Sep-05 15:59N 59°01' E 005°37'0 0.0
2017-Sep-05 15:29N 59°01' E 005°37'0 0.0
2017-Sep-05 14:59N 59°01' E 005°37'0 0.0
2017-Sep-05 14:29N 59°01' E 005°37'0 0.0
2017-Sep-05 13:59N 59°01' E 005°37'0 0.0
2017-Sep-05 13:29N 59°01' E 005°37'0 0.0
2017-Sep-05 12:56N 59°01' E 005°37'0 0.0
2017-Sep-05 12:29N 59°01' E 005°37'0 0.0
2017-Sep-05 11:59N 59°01' E 005°37'0 0.0
2017-Sep-05 11:29N 59°01' E 005°37'0 0.0
2017-Sep-05 10:59N 59°01' E 005°37'0 0.0
2017-Sep-05 10:29N 59°01' E 005°37'0 0.0
2017-Sep-05 09:59N 59°01' E 005°37'0 0.0
2017-Sep-05 09:29N 59°01' E 005°37'0 0.0
2017-Sep-05 08:59N 59°01' E 005°37'0 0.0
2017-Sep-05 08:29N 59°01' E 005°37'0 0.0
2017-Sep-05 07:59N 59°01' E 005°37'0 0.0
2017-Sep-05 07:29N 59°01' E 005°37'0 0.0
2017-Sep-05 06:59N 59°01' E 005°37'0 0.0
2017-Sep-05 06:29N 59°01' E 005°37'0 0.0
2017-Sep-05 05:59N 59°01' E 005°37'0 0.0
2017-Sep-05 05:29N 59°01' E 005°37'0 0.0
2017-Sep-05 04:59N 59°01' E 005°37'0 0.0
2017-Sep-05 04:29N 59°01' E 005°37'0 0.0
2017-Sep-05 03:59N 59°01' E 005°37'  
Track history (hours):
 
Tides and Currents Weather Stations Pressure Air Temp Water Temp Dewpoint Dewpoint Depression Visibility Wind Speed Wind Dir Waves Ship Positions

Randgrid

Last reported at 2017-Sep-15 03:32 UTC. Time now 2017-Sep-22 10:13 UTC.
Position N 59°01' E 004°55'.

Length 265 m.

Type: Tanker. MMSI: 311038200.

Date/timePositionNaut miles runAvg speedWind from/ knotsBaromVisibWave heightAir tempDewpointWater temp
2017-Sep-15 03:32N 59°01' E 004°55'0 7.0
2017-Sep-15 03:30N 59°01' E 004°55'4 7.0
2017-Sep-15 03:00N 59°02' E 005°02'3 6.8
2017-Sep-15 02:30N 59°03' E 005°08'3 6.9
2017-Sep-15 02:00N 59°04' E 005°14'3 6.9
2017-Sep-15 01:30N 59°06' E 005°20'3 7.0
2017-Sep-15 01:00N 59°06' E 005°27'3 5.7
2017-Sep-15 00:30N 59°05' E 005°32'3 5.2
2017-Sep-15 00:00N 59°03' E 005°35'2 3.0
2017-Sep-14 23:30N 59°02' E 005°37'0 0.5
2017-Sep-14 23:00N 59°02' E 005°37'0 0.6
2017-Sep-14 22:30N 59°02' E 005°37'0 0.4
2017-Sep-14 22:00N 59°01' E 005°37'0 0.0
2017-Sep-14 21:30N 59°01' E 005°37'0 0.0
2017-Sep-14 21:00N 59°01' E 005°37'0 0.0
2017-Sep-14 20:30N 59°01' E 005°37'0 0.0
2017-Sep-14 20:00N 59°01' E 005°37'0 0.0
2017-Sep-14 19:30N 59°01' E 005°37'0 0.0
2017-Sep-14 19:00N 59°01' E 005°37'0 0.0
2017-Sep-14 18:30N 59°01' E 005°37'0 0.0
2017-Sep-14 18:00N 59°01' E 005°37'0 0.0
2017-Sep-14 17:30N 59°01' E 005°37'0 0.0
2017-Sep-14 17:00N 59°01' E 005°37'0 0.0
2017-Sep-14 16:30N 59°01' E 005°37'0 0.0
2017-Sep-14 16:00N 59°01' E 005°37'0 0.0
2017-Sep-14 15:30N 59°01' E 005°37'0 0.0
2017-Sep-14 15:00N 59°01' E 005°37'0 0.0
2017-Sep-14 14:30N 59°01' E 005°37'0 0.0
2017-Sep-14 14:00N 59°01' E 005°37'0 0.0
2017-Sep-14 13:30N 59°01' E 005°37'0 0.0
2017-Sep-14 13:00N 59°01' E 005°37'0 0.0
2017-Sep-14 12:30N 59°01' E 005°37'0 0.0
2017-Sep-14 12:00N 59°01' E 005°37'0 0.0
2017-Sep-14 11:30N 59°01' E 005°37'0 0.0
2017-Sep-14 11:00N 59°01' E 005°37'0 0.0
2017-Sep-14 10:30N 59°01' E 005°37'0 0.0
2017-Sep-14 10:00N 59°01' E 005°37'0 0.0
2017-Sep-14 09:30N 59°01' E 005°37'0 0.0
2017-Sep-14 09:00N 59°01' E 005°37'0 0.0
2017-Sep-14 08:30N 59°01' E 005°37'0 0.0
2017-Sep-14 08:00N 59°01' E 005°37'0 0.0
2017-Sep-14 07:30N 59°01' E 005°37'0 0.0
2017-Sep-14 07:00N 59°01' E 005°37'0 0.0
2017-Sep-14 06:30N 59°01' E 005°37'0 0.0
2017-Sep-14 06:00N 59°01' E 005°37'0 0.0
2017-Sep-14 05:30N 59°01' E 005°37'0 0.0
2017-Sep-14 05:00N 59°01' E 005°37'0 0.0
2017-Sep-14 04:30N 59°01' E 005°37'0 0.0
2017-Sep-14 04:00N 59°01' E 005°37'0 0.0
2017-Sep-14 03:30N 59°01' E 005°37'0 0.0
2017-Sep-14 03:00N 59°01' E 005°37'0 0.0
2017-Sep-14 02:30N 59°01' E 005°37'0 0.0
2017-Sep-14 02:00N 59°01' E 005°37'0 0.0
2017-Sep-14 01:30N 59°01' E 005°37'0 0.0
2017-Sep-14 01:00N 59°01' E 005°37'0 0.0
2017-Sep-14 00:30N 59°01' E 005°37'0 0.0
2017-Sep-14 00:00N 59°01' E 005°37'0 0.0
2017-Sep-13 23:30N 59°01' E 005°37'0 0.0
2017-Sep-13 23:00N 59°01' E 005°37'0 0.0
2017-Sep-13 22:30N 59°01' E 005°37'0 0.0
2017-Sep-13 22:00N 59°01' E 005°37'0 0.0
2017-Sep-13 21:30N 59°01' E 005°37'0 0.0
2017-Sep-13 21:00N 59°01' E 005°37'0 0.0
2017-Sep-13 20:30N 59°01' E 005°37'0 0.0
2017-Sep-13 20:00N 59°01' E 005°37'0 0.0
2017-Sep-13 19:30N 59°01' E 005°37'0 0.0
2017-Sep-13 19:00N 59°01' E 005°37'0 0.0
2017-Sep-13 18:30N 59°01' E 005°37'0 0.0
2017-Sep-13 18:00N 59°01' E 005°37'0 0.0
2017-Sep-13 17:30N 59°01' E 005°37'0 0.0
2017-Sep-13 17:00N 59°01' E 005°37'0 0.0
2017-Sep-13 16:30N 59°01' E 005°37'0 0.0
2017-Sep-13 16:00N 59°01' E 005°37'0 0.0
2017-Sep-13 15:30N 59°01' E 005°37'0 0.0
2017-Sep-13 15:00N 59°01' E 005°37'0 0.0
2017-Sep-13 14:30N 59°01' E 005°37'0 0.0
2017-Sep-13 14:00N 59°01' E 005°37'0 0.0
2017-Sep-13 13:30N 59°01' E 005°37'0 0.0
2017-Sep-13 13:00N 59°01' E 005°37'0 0.0
2017-Sep-13 12:30N 59°01' E 005°37'0 0.0
2017-Sep-13 12:00N 59°01' E 005°37'0 0.0
2017-Sep-13 11:30N 59°01' E 005°37'0 0.0
2017-Sep-13 11:00N 59°01' E 005°37'0 0.0
2017-Sep-13 10:30N 59°01' E 005°37'0 0.0
2017-Sep-13 10:00N 59°01' E 005°37'0 0.0
2017-Sep-13 09:10N 59°01' E 005°37'0 0.0
2017-Sep-13 08:58N 59°01' E 005°37'0 0.0
2017-Sep-13 08:28N 59°01' E 005°37'0 0.0
2017-Sep-13 07:58N 59°01' E 005°37'0 0.0
2017-Sep-13 07:28N 59°01' E 005°37'0 0.0
2017-Sep-13 06:58N 59°01' E 005°37'0 0.0
2017-Sep-13 06:28N 59°01' E 005°37'0 0.0
2017-Sep-13 05:58N 59°01' E 005°37'0 0.0
2017-Sep-13 05:28N 59°01' E 005°37'0 0.0
2017-Sep-13 04:58N 59°01' E 005°37'0 0.0
2017-Sep-13 04:28N 59°01' E 005°37'0 0.0
2017-Sep-13 03:58N 59°01' E 005°37'0 0.0
2017-Sep-13 03:28N 59°01' E 005°37'0 0.0
2017-Sep-13 02:58N 59°01' E 005°37'0 0.0
2017-Sep-13 02:28N 59°01' E 005°37'0 0.0
2017-Sep-13 01:58N 59°01' E 005°37'0 0.0
2017-Sep-13 01:28N 59°01' E 005°37'0 0.0
2017-Sep-13 00:58N 59°01' E 005°37'0 0.0
2017-Sep-13 00:28N 59°01' E 005°37'0 0.0
2017-Sep-12 23:58N 59°01' E 005°37'0 0.0
2017-Sep-12 23:28N 59°01' E 005°37'0 0.0
2017-Sep-12 22:58N 59°01' E 005°37'0 0.0
2017-Sep-12 22:25N 59°01' E 005°37'0 0.0
2017-Sep-12 21:58N 59°01' E 005°37'0 0.0
2017-Sep-12 21:28N 59°01' E 005°37'0 0.0
2017-Sep-12 20:58N 59°01' E 005°37'0 0.0
2017-Sep-12 20:28N 59°01' E 005°37'0 0.0
2017-Sep-12 19:58N 59°01' E 005°37'0 0.0
2017-Sep-12 19:28N 59°01' E 005°37'0 0.0
2017-Sep-12 18:58N 59°01' E 005°37'0 0.0
2017-Sep-12 18:28N 59°01' E 005°37'0 0.0
2017-Sep-12 17:58N 59°01' E 005°37'0 0.0
2017-Sep-12 17:31N 59°01' E 005°37'0 0.0
2017-Sep-12 17:01N 59°01' E 005°37'0 0.0
2017-Sep-12 16:27N 59°01' E 005°37'0 0.0
2017-Sep-12 16:00N 59°01' E 005°37'0 0.0
2017-Sep-12 15:30N 59°01' E 005°37'0 0.0
2017-Sep-12 15:00N 59°01' E 005°37'0 0.0
2017-Sep-12 14:30N 59°01' E 005°37'0 0.0
2017-Sep-12 14:00N 59°01' E 005°37'0 0.0
2017-Sep-12 13:27N 59°01' E 005°37'0 0.0
2017-Sep-12 12:57N 59°01' E 005°37'0 0.0
2017-Sep-12 12:30N 59°01' E 005°37'0 0.0
2017-Sep-12 12:00N 59°01' E 005°37'0 0.0
2017-Sep-12 11:30N 59°01' E 005°37'0 0.0
2017-Sep-12 11:00N 59°01' E 005°37'0 0.0
2017-Sep-12 10:27N 59°01' E 005°37'0 0.0
2017-Sep-12 10:00N 59°01' E 005°37'0 0.0
2017-Sep-12 09:30N 59°01' E 005°37'0 0.0
2017-Sep-12 09:00N 59°01' E 005°37'0 0.0
2017-Sep-12 08:30N 59°01' E 005°37'0 0.0
2017-Sep-12 08:00N 59°01' E 005°37'0 0.0
2017-Sep-12 07:30N 59°01' E 005°37'0 0.0
2017-Sep-12 07:00N 59°01' E 005°37'0 0.0
2017-Sep-12 06:30N 59°01' E 005°37'0 0.0
2017-Sep-12 06:00N 59°01' E 005°37'0 0.0
2017-Sep-12 05:30N 59°01' E 005°37'0 0.0
2017-Sep-12 05:00N 59°01' E 005°37'0 0.0
2017-Sep-12 04:27N 59°01' E 005°37'0 0.0
2017-Sep-12 04:00N 59°01' E 005°37'0 0.0
2017-Sep-12 03:30N 59°01' E 005°37'0 0.0
2017-Sep-12 03:00N 59°01' E 005°37'0 0.0
2017-Sep-12 02:30N 59°01' E 005°37'0 0.0
2017-Sep-12 02:00N 59°01' E 005°37'0 0.0
2017-Sep-12 01:30N 59°01' E 005°37'0 0.0
2017-Sep-12 01:00N 59°01' E 005°37'0 0.0
2017-Sep-12 00:30N 59°01' E 005°37'0 0.0
2017-Sep-12 00:00N 59°01' E 005°37'0 0.0
2017-Sep-11 23:30N 59°01' E 005°37'0 0.0
2017-Sep-11 23:00N 59°01' E 005°37'0 0.0
2017-Sep-11 22:30N 59°01' E 005°37'0 0.0
2017-Sep-11 22:00N 59°01' E 005°37'0 0.0
2017-Sep-11 21:30N 59°01' E 005°37'0 0.0
2017-Sep-11 21:00N 59°01' E 005°37'0 0.0
2017-Sep-11 20:30N 59°01' E 005°37'0 0.0
2017-Sep-11 20:00N 59°01' E 005°37'0 0.0
2017-Sep-11 19:30N 59°01' E 005°37'0 0.0
2017-Sep-11 19:00N 59°01' E 005°37'0 0.0
2017-Sep-11 18:30N 59°01' E 005°37'0 0.0
2017-Sep-11 18:00N 59°01' E 005°37'0 0.0
2017-Sep-11 17:30N 59°01' E 005°37'0 0.0
2017-Sep-11 17:00N 59°01' E 005°37'0 0.0
2017-Sep-11 16:30N 59°01' E 005°37'0 0.0
2017-Sep-11 16:00N 59°01' E 005°37'0 0.0
2017-Sep-11 15:30N 59°01' E 005°37'0 0.0
2017-Sep-11 15:00N 59°01' E 005°37'0 0.0
2017-Sep-11 14:30N 59°01' E 005°37'0 0.0
2017-Sep-11 14:00N 59°01' E 005°37'0 0.0
2017-Sep-11 13:30N 59°01' E 005°37'0 0.0
2017-Sep-11 13:00N 59°01' E 005°37'0 0.0
2017-Sep-11 12:30N 59°01' E 005°37'0 0.0
2017-Sep-11 12:00N 59°01' E 005°37'0 0.0
2017-Sep-11 11:30N 59°01' E 005°37'0 0.0
2017-Sep-11 11:00N 59°01' E 005°37'0 0.0
2017-Sep-11 10:30N 59°01' E 005°37'0 0.0
2017-Sep-11 10:00N 59°01' E 005°37'0 0.0
2017-Sep-11 09:30N 59°01' E 005°37'0 0.0
2017-Sep-11 09:00N 59°01' E 005°37'0 0.0
2017-Sep-11 08:30N 59°01' E 005°37'0 0.0
2017-Sep-11 08:00N 59°01' E 005°37'0 0.0
2017-Sep-11 07:30N 59°01' E 005°37'0 0.0
2017-Sep-11 07:00N 59°01' E 005°37'0 0.0
2017-Sep-11 06:30N 59°01' E 005°37'0 0.0
2017-Sep-11 06:00N 59°01' E 005°37'0 0.0
2017-Sep-11 05:30N 59°01' E 005°37'0 0.0
2017-Sep-11 05:00N 59°01' E 005°37'0 0.0
2017-Sep-11 04:30N 59°01' E 005°37'0 0.0
2017-Sep-11 04:00N 59°01' E 005°37'0 0.0
2017-Sep-11 03:30N 59°01' E 005°37'0 0.0
2017-Sep-11 02:59N 59°01' E 005°37'0 0.0
2017-Sep-11 02:29N 59°01' E 005°37'0 0.0
2017-Sep-11 01:59N 59°01' E 005°37'0 0.0
2017-Sep-11 01:29N 59°01' E 005°37'0 0.0
2017-Sep-11 00:59N 59°01' E 005°37'0 0.0
2017-Sep-11 00:29N 59°01' E 005°37'0 0.0
2017-Sep-10 23:59N 59°01' E 005°37'0 0.0
2017-Sep-10 23:29N 59°01' E 005°37'0 0.0
2017-Sep-10 22:59N 59°01' E 005°37'0 0.0
2017-Sep-10 22:29N 59°01' E 005°37'0 0.0
2017-Sep-10 21:59N 59°01' E 005°37'0 0.0
2017-Sep-10 21:29N 59°01' E 005°37'0 0.0
2017-Sep-10 20:59N 59°01' E 005°37'0 0.0
2017-Sep-10 20:29N 59°01' E 005°37'0 0.0
2017-Sep-10 19:59N 59°01' E 005°37'0 0.0
2017-Sep-10 19:29N 59°01' E 005°37'0 0.0
2017-Sep-10 18:59N 59°01' E 005°37'0 0.0
2017-Sep-10 18:29N 59°01' E 005°37'0 0.0
2017-Sep-10 17:59N 59°01' E 005°37'0 0.0
2017-Sep-10 17:29N 59°01' E 005°37'0 0.0
2017-Sep-10 16:59N 59°01' E 005°37'0 0.0
2017-Sep-10 16:29N 59°01' E 005°37'0 0.0
2017-Sep-10 15:59N 59°01' E 005°37'0 0.0
2017-Sep-10 15:29N 59°01' E 005°37'0 0.0
2017-Sep-10 14:59N 59°01' E 005°37'0 0.0
2017-Sep-10 13:59N 59°01' E 005°37'0 0.0
2017-Sep-10 13:29N 59°01' E 005°37'0 0.0
2017-Sep-10 12:59N 59°01' E 005°37'0 0.0
2017-Sep-10 12:29N 59°01' E 005°37'0 0.0
2017-Sep-10 11:58N 59°01' E 005°37'0 0.0
2017-Sep-10 11:28N 59°01' E 005°37'0 0.0
2017-Sep-10 10:58N 59°01' E 005°37'0 0.0
2017-Sep-10 10:28N 59°01' E 005°37'0 0.0
2017-Sep-10 09:58N 59°01' E 005°37'0 0.0
2017-Sep-10 09:28N 59°01' E 005°37'0 0.0
2017-Sep-10 08:58N 59°01' E 005°37'0 0.0
2017-Sep-10 08:28N 59°01' E 005°37'0 0.0
2017-Sep-10 07:58N 59°01' E 005°37'0 0.0
2017-Sep-10 07:28N 59°01' E 005°37'0 0.0
2017-Sep-10 06:58N 59°01' E 005°37'0 0.0
2017-Sep-10 06:28N 59°01' E 005°37'0 0.0
2017-Sep-10 05:58N 59°01' E 005°37'0 0.0
2017-Sep-10 05:28N 59°01' E 005°37'0 0.0
2017-Sep-10 04:58N 59°01' E 005°37'0 0.0
2017-Sep-10 04:28N 59°01' E 005°37'0 0.0
2017-Sep-10 03:58N 59°01' E 005°37'0 0.0
2017-Sep-10 03:28N 59°01' E 005°37'0 0.0
2017-Sep-10 02:58N 59°01' E 005°37'0 0.0
2017-Sep-10 02:28N 59°01' E 005°37'0 0.0
2017-Sep-10 01:58N 59°01' E 005°37'0 0.0
2017-Sep-10 01:28N 59°01' E 005°37'0 0.0
2017-Sep-10 00:58N 59°01' E 005°37'0 0.0
2017-Sep-10 00:28N 59°01' E 005°37'0 0.0
2017-Sep-09 23:58N 59°01' E 005°37'0 0.0
2017-Sep-09 23:28N 59°01' E 005°37'0 0.0
2017-Sep-09 22:58N 59°01' E 005°37'0 0.0
2017-Sep-09 22:28N 59°01' E 005°37'0 0.0
2017-Sep-09 21:58N 59°01' E 005°37'0 0.0
2017-Sep-09 21:28N 59°01' E 005°37'0 0.0
2017-Sep-09 20:58N 59°01' E 005°37'0 0.0
2017-Sep-09 20:28N 59°01' E 005°37'0 0.0
2017-Sep-09 19:58N 59°01' E 005°37'0 0.0
2017-Sep-09 19:28N 59°01' E 005°37'0 0.0
2017-Sep-09 18:55N 59°01' E 005°37'0 0.0
2017-Sep-09 18:28N 59°01' E 005°37'0 0.0
2017-Sep-09 17:58N 59°01' E 005°37'0 0.0
2017-Sep-09 17:28N 59°01' E 005°37'0 0.0
2017-Sep-09 16:58N 59°01' E 005°37'0 0.0
2017-Sep-09 16:28N 59°01' E 005°37'0 0.0
2017-Sep-09 15:58N 59°01' E 005°37'0 0.0
2017-Sep-09 15:28N 59°01' E 005°37'0 0.0
2017-Sep-09 14:58N 59°01' E 005°37'0 0.0
2017-Sep-09 14:28N 59°01' E 005°37'0 0.0
2017-Sep-09 13:58N 59°01' E 005°37'0 0.0
2017-Sep-09 13:28N 59°01' E 005°37'0 0.0
2017-Sep-09 12:58N 59°01' E 005°37'0 0.0
2017-Sep-09 12:28N 59°01' E 005°37'0 0.0
2017-Sep-09 11:58N 59°01' E 005°37'0 0.0
2017-Sep-09 11:28N 59°01' E 005°37'0 0.0
2017-Sep-09 10:58N 59°01' E 005°37'0 0.0
2017-Sep-09 10:28N 59°01' E 005°37'0 0.0
2017-Sep-09 09:58N 59°01' E 005°37'0 0.0
2017-Sep-09 09:28N 59°01' E 005°37'0 0.0
2017-Sep-09 08:58N 59°01' E 005°37'0 0.0
2017-Sep-09 08:28N 59°01' E 005°37'0 0.0
2017-Sep-09 07:58N 59°01' E 005°37'0 0.0
2017-Sep-09 07:28N 59°01' E 005°37'0 0.0
2017-Sep-09 06:58N 59°01' E 005°37'0 0.0
2017-Sep-09 06:31N 59°01' E 005°37'0 0.0
2017-Sep-09 06:01N 59°01' E 005°37'0 0.0
2017-Sep-09 05:31N 59°01' E 005°37'0 0.0
2017-Sep-09 05:00N 59°01' E 005°37'0 0.0
2017-Sep-09 04:30N 59°01' E 005°37'0 0.0
2017-Sep-09 04:00N 59°01' E 005°37'0 0.0
2017-Sep-09 03:30N 59°01' E 005°37'0 0.0
2017-Sep-09 03:00N 59°01' E 005°37'0 0.0
2017-Sep-09 02:30N 59°01' E 005°37'0 0.0
2017-Sep-09 02:00N 59°01' E 005°37'0 0.0
2017-Sep-09 01:30N 59°01' E 005°37'0 0.0
2017-Sep-09 01:00N 59°01' E 005°37'0 0.0
2017-Sep-09 00:30N 59°01' E 005°37'0 0.0
2017-Sep-09 00:00N 59°01' E 005°37'0 0.0
2017-Sep-08 23:30N 59°01' E 005°37'0 0.0
2017-Sep-08 23:00N 59°01' E 005°37'0 0.0
2017-Sep-08 22:30N 59°01' E 005°37'0 0.0
2017-Sep-08 22:00N 59°01' E 005°37'0 0.0
2017-Sep-08 21:30N 59°01' E 005°37'0 0.0
2017-Sep-08 21:00N 59°01' E 005°37'0 0.0
2017-Sep-08 20:30N 59°01' E 005°37'0 0.0
2017-Sep-08 20:00N 59°01' E 005°37'0 0.0
2017-Sep-08 19:30N 59°01' E 005°37'0 0.0
2017-Sep-08 19:00N 59°01' E 005°37'0 0.0
2017-Sep-08 18:30N 59°01' E 005°37'0 0.0
2017-Sep-08 17:57N 59°01' E 005°37'0 0.0
2017-Sep-08 17:30N 59°01' E 005°37'0 0.0
2017-Sep-08 17:00N 59°01' E 005°37'0 0.0
2017-Sep-08 16:30N 59°01' E 005°37'0 0.0
2017-Sep-08 16:00N 59°01' E 005°37'0 0.0
2017-Sep-08 15:30N 59°01' E 005°37'0 0.0
2017-Sep-08 15:00N 59°01' E 005°37'0 0.0
2017-Sep-08 14:30N 59°01' E 005°37'0 0.0
2017-Sep-08 14:00N 59°01' E 005°37'0 0.0
2017-Sep-08 13:30N 59°01' E 005°37'0 0.0
2017-Sep-08 13:00N 59°01' E 005°37'0 0.0
2017-Sep-08 12:30N 59°01' E 005°37'0 0.0
2017-Sep-08 12:00N 59°01' E 005°37'0 0.0
2017-Sep-08 11:30N 59°01' E 005°37'0 0.0
2017-Sep-08 11:00N 59°01' E 005°37'0 0.0
2017-Sep-08 10:30N 59°01' E 005°37'0 0.0
2017-Sep-08 09:57N 59°01' E 005°37'0 0.0
2017-Sep-08 09:27N 59°01' E 005°37'0 0.0
2017-Sep-08 09:00N 59°01' E 005°37'0 0.0
2017-Sep-08 08:30N 59°01' E 005°37'0 0.0
2017-Sep-08 08:00N 59°01' E 005°37'0 0.0
2017-Sep-08 07:30N 59°01' E 005°37'0 0.0
2017-Sep-08 07:00N 59°01' E 005°37'0 0.0
2017-Sep-08 06:30N 59°01' E 005°37'0 0.0
2017-Sep-08 06:00N 59°01' E 005°37'0 0.0
2017-Sep-08 05:30N 59°01' E 005°37'0 0.0
2017-Sep-08 05:00N 59°01' E 005°37'0 0.0
2017-Sep-08 04:30N 59°01' E 005°37'0 0.0
2017-Sep-08 04:00N 59°01' E 005°37'0 0.0
2017-Sep-08 03:30N 59°01' E 005°37'0 0.0
2017-Sep-08 03:00N 59°01' E 005°37'0 0.0
2017-Sep-08 02:30N 59°01' E 005°37'0 0.0
2017-Sep-08 02:00N 59°01' E 005°37'0 0.0
2017-Sep-08 01:30N 59°01' E 005°37'0 0.0
2017-Sep-08 01:00N 59°01' E 005°37'0 0.0
2017-Sep-08 00:30N 59°01' E 005°37'0 0.0
2017-Sep-08 00:00N 59°01' E 005°37'0 0.0
2017-Sep-07 23:30N 59°01' E 005°37'0 0.0
2017-Sep-07 23:00N 59°01' E 005°37'0 0.0
2017-Sep-07 22:30N 59°01' E 005°37'0 0.0
2017-Sep-07 22:00N 59°01' E 005°37'0 0.0
2017-Sep-07 21:30N 59°01' E 005°37'0 0.0
2017-Sep-07 21:00N 59°01' E 005°37'0 0.0
2017-Sep-07 20:30N 59°01' E 005°37'0 0.0
2017-Sep-07 20:00N 59°01' E 005°37'0 0.0
2017-Sep-07 19:27N 59°01' E 005°37'0 0.0
2017-Sep-07 19:00N 59°01' E 005°37'0 0.0
2017-Sep-07 18:30N 59°01' E 005°37'0 0.0
2017-Sep-07 18:00N 59°01' E 005°37'0 0.0
2017-Sep-07 17:30N 59°01' E 005°37'0 0.0
2017-Sep-07 17:00N 59°01' E 005°37'0 0.0
2017-Sep-07 16:30N 59°01' E 005°37'0 0.0
2017-Sep-07 16:00N 59°01' E 005°37'0 0.0
2017-Sep-07 15:30N 59°01' E 005°37'0 0.0
2017-Sep-07 14:59N 59°01' E 005°37'0 0.0
2017-Sep-07 14:29N 59°01' E 005°37'0 0.0
2017-Sep-07 13:59N 59°01' E 005°37'0 0.0
2017-Sep-07 13:29N 59°01' E 005°37'0 0.0
2017-Sep-07 12:59N 59°01' E 005°37'0 0.0
2017-Sep-07 12:29N 59°01' E 005°37'0 0.0
2017-Sep-07 11:59N 59°01' E 005°37'0 0.0
2017-Sep-07 11:29N 59°01' E 005°37'0 0.0
2017-Sep-07 10:59N 59°01' E 005°37'0 0.0
2017-Sep-07 10:29N 59°01' E 005°37'0 0.0
2017-Sep-07 09:59N 59°01' E 005°37'0 0.0
2017-Sep-07 09:27N 59°01' E 005°37'0 0.0
2017-Sep-07 09:00N 59°01' E 005°37'0 0.0
2017-Sep-07 08:30N 59°01' E 005°37'0 0.0
2017-Sep-07 08:00N 59°01' E 005°37'0 0.0
2017-Sep-07 07:30N 59°01' E 005°37'0 0.0
2017-Sep-07 07:00N 59°01' E 005°37'0 0.0
2017-Sep-07 06:30N 59°01' E 005°37'0 0.0
2017-Sep-07 06:00N 59°01' E 005°37'0 0.0
2017-Sep-07 05:30N 59°01' E 005°37'0 0.0
2017-Sep-07 05:00N 59°01' E 005°37'0 0.0
2017-Sep-07 04:30N 59°01' E 005°37'0 0.0
2017-Sep-07 04:00N 59°01' E 005°37'0 0.0
2017-Sep-07 03:30N 59°01' E 005°37'0 0.0
2017-Sep-07 03:00N 59°01' E 005°37'0 0.0
2017-Sep-07 02:30N 59°01' E 005°37'0 0.0
2017-Sep-07 02:00N 59°01' E 005°37'0 0.0
2017-Sep-07 01:30N 59°01' E 005°37'0 0.0
2017-Sep-07 01:00N 59°01' E 005°37'0 0.0
2017-Sep-07 00:30N 59°01' E 005°37'0 0.0
2017-Sep-07 00:00N 59°01' E 005°37'0 0.0
2017-Sep-06 23:30N 59°01' E 005°37'0 0.0
2017-Sep-06 23:00N 59°01' E 005°37'0 0.0
2017-Sep-06 22:30N 59°01' E 005°37'0 0.0
2017-Sep-06 22:00N 59°01' E 005°37'0 0.0
2017-Sep-06 21:30N 59°01' E 005°37'0 0.0
2017-Sep-06 21:00N 59°01' E 005°37'0 0.0
2017-Sep-06 20:30N 59°01' E 005°37'0 0.0
2017-Sep-06 20:00N 59°01' E 005°37'0 0.0
2017-Sep-06 19:30N 59°01' E 005°37'0 0.0
2017-Sep-06 19:00N 59°01' E 005°37'0 0.0
2017-Sep-06 18:30N 59°01' E 005°37'0 0.0
2017-Sep-06 18:00N 59°01' E 005°37'0 0.0
2017-Sep-06 17:30N 59°01' E 005°37'0 0.0
2017-Sep-06 17:00N 59°01' E 005°37'0 0.0
2017-Sep-06 16:30N 59°01' E 005°37'0 0.0
2017-Sep-06 16:00N 59°01' E 005°37'0 0.0
2017-Sep-06 15:30N 59°01' E 005°37'0 0.0
2017-Sep-06 14:59N 59°01' E 005°37'0 0.0
2017-Sep-06 14:29N 59°01' E 005°37'0 0.0
2017-Sep-06 13:59N 59°01' E 005°37'0 0.0
2017-Sep-06 13:29N 59°01' E 005°37'0 0.0
2017-Sep-06 12:59N 59°01' E 005°37'0 0.0
2017-Sep-06 12:26N 59°01' E 005°37'0 0.0
2017-Sep-06 11:59N 59°01' E 005°37'0 0.0
2017-Sep-06 11:29N 59°01' E 005°37'0 0.0
2017-Sep-06 10:59N 59°01' E 005°37'0 0.0
2017-Sep-06 10:29N 59°01' E 005°37'0 0.0
2017-Sep-06 09:59N 59°01' E 005°37'0 0.0
2017-Sep-06 09:29N 59°01' E 005°37'0 0.0
2017-Sep-06 08:59N 59°01' E 005°37'0 0.0
2017-Sep-06 08:29N 59°01' E 005°37'0 0.0
2017-Sep-06 07:59N 59°01' E 005°37'0 0.0
2017-Sep-06 07:29N 59°01' E 005°37'0 0.0
2017-Sep-06 06:59N 59°01' E 005°37'0 0.0
2017-Sep-06 06:29N 59°01' E 005°37'0 0.0
2017-Sep-06 05:59N 59°01' E 005°37'0 0.0
2017-Sep-06 05:29N 59°01' E 005°37'0 0.0
2017-Sep-06 04:59N 59°01' E 005°37'0 0.0
2017-Sep-06 04:29N 59°01' E 005°37'0 0.0
2017-Sep-06 03:59N 59°01' E 005°37'0 0.0
2017-Sep-06 03:29N 59°01' E 005°37'0 0.0
2017-Sep-06 02:59N 59°01' E 005°37'0 0.0
2017-Sep-06 02:29N 59°01' E 005°37'0 0.0
2017-Sep-06 01:59N 59°01' E 005°37'0 0.0
2017-Sep-06 01:26N 59°01' E 005°37'0 0.0
2017-Sep-06 00:59N 59°01' E 005°37'0 0.0
2017-Sep-06 00:29N 59°01' E 005°37'0 0.0
2017-Sep-05 23:59N 59°01' E 005°37'0 0.0
2017-Sep-05 23:29N 59°01' E 005°37'0 0.0
2017-Sep-05 22:59N 59°01' E 005°37'0 0.0
2017-Sep-05 22:29N 59°01' E 005°37'0 0.0
2017-Sep-05 21:59N 59°01' E 005°37'0 0.0
2017-Sep-05 21:29N 59°01' E 005°37'0 0.0
2017-Sep-05 20:59N 59°01' E 005°37'0 0.0
2017-Sep-05 20:29N 59°01' E 005°37'0 0.0
2017-Sep-05 19:59N 59°01' E 005°37'0 0.0
2017-Sep-05 19:29N 59°01' E 005°37'0 0.0
2017-Sep-05 18:59N 59°01' E 005°37'0 0.0
2017-Sep-05 18:29N 59°01' E 005°37'0 0.0
2017-Sep-05 17:59N 59°01' E 005°37'0 0.0
2017-Sep-05 17:29N 59°01' E 005°37'0 0.0
2017-Sep-05 16:59N 59°01' E 005°37'0 0.0
2017-Sep-05 16:29N 59°01' E 005°37'0 0.0
2017-Sep-05 15:59N 59°01' E 005°37'0 0.0
2017-Sep-05 15:29N 59°01' E 005°37'0 0.0
2017-Sep-05 14:59N 59°01' E 005°37'0 0.0
2017-Sep-05 14:29N 59°01' E 005°37'0 0.0
2017-Sep-05 13:59N 59°01' E 005°37'0 0.0
2017-Sep-05 13:29N 59°01' E 005°37'0 0.0
2017-Sep-05 12:56N 59°01' E 005°37'0 0.0
2017-Sep-05 12:29N 59°01' E 005°37'0 0.0
2017-Sep-05 11:59N 59°01' E 005°37'0 0.0
2017-Sep-05 11:29N 59°01' E 005°37'0 0.0
2017-Sep-05 10:59N 59°01' E 005°37'0 0.0
2017-Sep-05 10:29N 59°01' E 005°37'0 0.0
2017-Sep-05 09:59N 59°01' E 005°37'0 0.0
2017-Sep-05 09:29N 59°01' E 005°37'0 0.0
2017-Sep-05 08:59N 59°01' E 005°37'0 0.0
2017-Sep-05 08:29N 59°01' E 005°37'0 0.0
2017-Sep-05 07:59N 59°01' E 005°37'0 0.0
2017-Sep-05 07:29N 59°01' E 005°37'0 0.0
2017-Sep-05 06:59N 59°01' E 005°37'0 0.0
2017-Sep-05 06:29N 59°01' E 005°37'0 0.0
2017-Sep-05 05:59N 59°01' E 005°37'0 0.0
2017-Sep-05 05:29N 59°01' E 005°37'0 0.0
2017-Sep-05 04:59N 59°01' E 005°37'0 0.0
2017-Sep-05 04:29N 59°01' E 005°37'0 0.0
2017-Sep-05 03:59N 59°01' E 005°37'  

Dump ship's entire track history